Hermiston, OR (97838)

3:28 AM PDT on July 23, 2016 (GMT -0700)
West Park Area, JW's Backyard | | Change Station

Elev 460 ft 45.84 °N, 119.30 °W | Updated 26 seconds ago

Clear
Clear
60.1 °F
Feels Like 60.1 °F
N
0.0
Wind Variable Wind from NW
Gusts 0.0 mph

Today
High -- | Low -- °F
--% Chance of Precip.
Yesterday
High -- | Low -- °F
Precip. -- in
Pressure 30.15 in
Visibility 10.0 miles
Clouds Clear
Dew Point 45 °F
Humidity 57%
Rainfall 0.00 in
Snow Depth Not available.
5:30 AM 8:36 PM
Waning Gibbous, 86% visible
METAR KHRI 230953Z AUTO 24009KT 10SM CLR 17/09 A3016 RMK AO2 SLP208 T01670089
Pressure 30.15 in
Visibility 10.0 miles
Clouds Clear
Dew Point 45 °F
Humidity 57%
Rainfall 0.00 in
Snow Depth Not available.
5:30 AM 8:36 PM
Waning Gibbous, 86% visible
METAR KHRI 230953Z AUTO 24009KT 10SM CLR 17/09 A3016 RMK AO2 SLP208 T01670089

10-Day Weather Forecast

Almanac

Astronomy

Jul. 23, 2016 Rise Set
Actual Time
Civil Twilight
Nautical Twilight
Astronomical Twilight
Moon
Length of Visible Light
Length of Day
Tomorrow will be .
, % of the Moon is Illuminated

Today's Extremes

State Highs State Lows

Community

WunderPhotos

Upload Photos

1,926,791 photos uploaded!

WunderBlog® & News

Nearby

Air Quality

  Air Quality AQ Index Pollutant
Not available.

Snow Depth

Station Depth Elevation

Earthquake Activity

City Distance Mag. Time & Date
Minimum magnitude displayed is 2.5.

Coastal Water Temperatures

Place Temperature

Stations

Nearby Weather Stations

Station Location Temp. Windchill Dew Point Humidity Wind Precip. Elev Updated Type
                   

Watches & Warnings

There are currently no watches in effect.